sensor_id;sensor_type;location;lat;lon;timestamp;P1;durP1;ratioP1;P2;durP2;ratioP2
18447;SDS011;9353;50.956;6.920;2022-09-03T00:01:58;1.40;;;1.40;;
18447;SDS011;9353;50.956;6.920;2022-09-03T00:04:30;2.50;;;1.17;;
18447;SDS011;9353;50.956;6.920;2022-09-03T00:07:01;1.50;;;1.40;;
18447;SDS011;9353;50.956;6.920;2022-09-03T00:09:30;1.20;;;1.20;;
18447;SDS011;9353;50.956;6.920;2022-09-03T00:12:00;2.13;;;1.60;;
18447;SDS011;9353;50.956;6.920;2022-09-03T00:14:33;1.10;;;1.00;;
18447;SDS011;9353;50.956;6.920;2022-09-03T00:17:02;1.60;;;1.50;;
18447;SDS011;9353;50.956;6.920;2022-09-03T00:19:32;1.60;;;1.50;;
18447;SDS011;9353;50.956;6.920;2022-09-03T00:22:02;2.00;;;1.50;;
18447;SDS011;9353;50.956;6.920;2022-09-03T00:24:32;1.93;;;1.40;;
18447;SDS011;9353;50.956;6.920;2022-09-03T00:27:02;2.63;;;1.50;;
18447;SDS011;9353;50.956;6.920;2022-09-03T00:29:34;1.47;;;1.37;;
18447;SDS011;9353;50.956;6.920;2022-09-03T00:32:03;1.63;;;1.20;;
18447;SDS011;9353;50.956;6.920;2022-09-03T00:34:33;1.20;;;1.20;;
18447;SDS011;9353;50.956;6.920;2022-09-03T00:37:03;1.33;;;1.23;;
18447;SDS011;9353;50.956;6.920;2022-09-03T00:39:30;1.43;;;1.37;;
18447;SDS011;9353;50.956;6.920;2022-09-03T00:42:01;2.07;;;1.20;;
18447;SDS011;9353;50.956;6.920;2022-09-03T00:47:16;1.27;;;1.20;;
18447;SDS011;9353;50.956;6.920;2022-09-03T00:49:48;1.50;;;1.40;;
18447;SDS011;9353;50.956;6.920;2022-09-03T00:52:20;1.13;;;1.13;;
18447;SDS011;9353;50.956;6.920;2022-09-03T00:54:52;1.00;;;1.00;;
18447;SDS011;9353;50.956;6.920;2022-09-03T00:57:29;1.37;;;1.30;;
18447;SDS011;9353;50.956;6.920;2022-09-03T01:00:03;1.53;;;1.20;;
18447;SDS011;9353;50.956;6.920;2022-09-03T01:02:34;2.10;;;1.40;;
18447;SDS011;9353;50.956;6.920;2022-09-03T01:05:14;1.57;;;1.47;;
18447;SDS011;9353;50.956;6.920;2022-09-03T01:07:45;1.23;;;1.17;;
18447;SDS011;9353;50.956;6.920;2022-09-03T01:10:19;2.47;;;1.37;;
18447;SDS011;9353;50.956;6.920;2022-09-03T01:12:51;2.87;;;1.40;;
18447;SDS011;9353;50.956;6.920;2022-09-03T01:15:21;1.40;;;1.30;;
18447;SDS011;9353;50.956;6.920;2022-09-03T01:17:57;1.20;;;1.20;;
18447;SDS011;9353;50.956;6.920;2022-09-03T01:20:31;1.03;;;1.03;;
18447;SDS011;9353;50.956;6.920;2022-09-03T01:25:48;2.17;;;1.30;;
18447;SDS011;9353;50.956;6.920;2022-09-03T01:28:24;1.40;;;1.30;;
18447;SDS011;9353;50.956;6.920;2022-09-03T01:30:58;1.57;;;1.47;;
18447;SDS011;9353;50.956;6.920;2022-09-03T01:33:27;1.30;;;1.20;;
18447;SDS011;9353;50.956;6.920;2022-09-03T01:35:58;1.10;;;1.10;;
18447;SDS011;9353;50.956;6.920;2022-09-03T01:38:30;2.27;;;1.43;;
18447;SDS011;9353;50.956;6.920;2022-09-03T01:41:05;2.70;;;1.30;;
18447;SDS011;9353;50.956;6.920;2022-09-03T01:43:57;1.20;;;1.20;;
18447;SDS011;9353;50.956;6.920;2022-09-03T01:46:29;1.27;;;1.10;;
18447;SDS011;9353;50.956;6.920;2022-09-03T01:48:59;1.30;;;1.20;;
18447;SDS011;9353;50.956;6.920;2022-09-03T01:51:29;1.63;;;1.47;;
18447;SDS011;9353;50.956;6.920;2022-09-03T01:56:56;1.30;;;1.30;;
18447;SDS011;9353;50.956;6.920;2022-09-03T01:59:28;1.27;;;1.03;;
18447;SDS011;9353;50.956;6.920;2022-09-03T02:01:58;1.27;;;1.20;;
18447;SDS011;9353;50.956;6.920;2022-09-03T02:04:30;1.17;;;1.17;;
18447;SDS011;9353;50.956;6.920;2022-09-03T02:06:58;1.10;;;1.10;;
18447;SDS011;9353;50.956;6.920;2022-09-03T02:09:26;1.27;;;1.10;;
18447;SDS011;9353;50.956;6.920;2022-09-03T02:11:54;1.20;;;1.20;;
18447;SDS011;9353;50.956;6.920;2022-09-03T02:14:23;1.40;;;1.30;;
18447;SDS011;9353;50.956;6.920;2022-09-03T02:16:52;1.53;;;1.50;;
18447;SDS011;9353;50.956;6.920;2022-09-03T02:19:21;1.50;;;1.40;;
18447;SDS011;9353;50.956;6.920;2022-09-03T02:21:48;1.33;;;1.33;;
18447;SDS011;9353;50.956;6.920;2022-09-03T02:24:17;1.00;;;1.00;;
18447;SDS011;9353;50.956;6.920;2022-09-03T02:26:44;1.30;;;1.20;;
18447;SDS011;9353;50.956;6.920;2022-09-03T02:29:11;1.40;;;1.30;;
18447;SDS011;9353;50.956;6.920;2022-09-03T02:31:39;1.30;;;1.30;;
18447;SDS011;9353;50.956;6.920;2022-09-03T02:34:07;1.50;;;1.33;;
18447;SDS011;9353;50.956;6.920;2022-09-03T02:36:35;1.20;;;1.20;;
18447;SDS011;9353;50.956;6.920;2022-09-03T02:39:03;8.07;;;1.60;;
18447;SDS011;9353;50.956;6.920;2022-09-03T02:41:31;1.57;;;1.47;;
18447;SDS011;9353;50.956;6.920;2022-09-03T02:44:00;1.10;;;1.00;;
18447;SDS011;9353;50.956;6.920;2022-09-03T02:46:29;1.13;;;1.13;;
18447;SDS011;9353;50.956;6.920;2022-09-03T02:48:58;1.10;;;1.10;;
18447;SDS011;9353;50.956;6.920;2022-09-03T02:51:26;1.43;;;1.30;;
18447;SDS011;9353;50.956;6.920;2022-09-03T02:53:57;1.40;;;1.30;;
18447;SDS011;9353;50.956;6.920;2022-09-03T02:56:24;1.00;;;1.00;;
18447;SDS011;9353;50.956;6.920;2022-09-03T02:58:51;1.10;;;1.00;;
18447;SDS011;9353;50.956;6.920;2022-09-03T03:01:19;1.10;;;1.10;;
18447;SDS011;9353;50.956;6.920;2022-09-03T03:03:46;2.40;;;1.30;;
18447;SDS011;9353;50.956;6.920;2022-09-03T03:06:13;1.70;;;1.20;;
18447;SDS011;9353;50.956;6.920;2022-09-03T03:08:41;1.53;;;1.43;;
18447;SDS011;9353;50.956;6.920;2022-09-03T03:11:09;1.00;;;1.00;;
18447;SDS011;9353;50.956;6.920;2022-09-03T03:13:36;1.70;;;1.10;;
18447;SDS011;9353;50.956;6.920;2022-09-03T03:16:04;1.27;;;1.20;;
18447;SDS011;9353;50.956;6.920;2022-09-03T03:18:32;1.33;;;1.27;;
18447;SDS011;9353;50.956;6.920;2022-09-03T03:21:02;0.93;;;0.93;;
18447;SDS011;9353;50.956;6.920;2022-09-03T03:23:30;1.60;;;1.50;;
18447;SDS011;9353;50.956;6.920;2022-09-03T03:26:00;1.30;;;1.30;;
18447;SDS011;9353;50.956;6.920;2022-09-03T03:28:28;1.07;;;1.07;;
18447;SDS011;9353;50.956;6.920;2022-09-03T03:30:56;1.00;;;1.00;;
18447;SDS011;9353;50.956;6.920;2022-09-03T03:33:23;1.80;;;1.20;;
18447;SDS011;9353;50.956;6.920;2022-09-03T03:35:50;1.20;;;1.20;;
18447;SDS011;9353;50.956;6.920;2022-09-03T03:38:17;1.50;;;1.40;;
18447;SDS011;9353;50.956;6.920;2022-09-03T03:40:44;1.20;;;1.20;;
18447;SDS011;9353;50.956;6.920;2022-09-03T03:43:13;1.10;;;1.10;;
18447;SDS011;9353;50.956;6.920;2022-09-03T03:45:40;1.10;;;1.10;;
18447;SDS011;9353;50.956;6.920;2022-09-03T03:48:07;1.20;;;1.20;;
18447;SDS011;9353;50.956;6.920;2022-09-03T03:50:34;1.50;;;1.03;;
18447;SDS011;9353;50.956;6.920;2022-09-03T03:53:02;1.20;;;1.10;;
18447;SDS011;9353;50.956;6.920;2022-09-03T03:55:29;1.00;;;1.00;;
18447;SDS011;9353;50.956;6.920;2022-09-03T03:57:57;1.10;;;1.10;;
18447;SDS011;9353;50.956;6.920;2022-09-03T04:00:25;1.27;;;1.27;;
18447;SDS011;9353;50.956;6.920;2022-09-03T04:02:53;1.33;;;1.20;;
18447;SDS011;9353;50.956;6.920;2022-09-03T04:05:20;1.20;;;1.10;;
18447;SDS011;9353;50.956;6.920;2022-09-03T04:07:47;1.10;;;1.10;;
18447;SDS011;9353;50.956;6.920;2022-09-03T04:10:14;1.00;;;1.00;;
18447;SDS011;9353;50.956;6.920;2022-09-03T04:12:41;1.13;;;1.13;;
18447;SDS011;9353;50.956;6.920;2022-09-03T04:15:08;1.37;;;1.37;;
18447;SDS011;9353;50.956;6.920;2022-09-03T04:17:37;1.10;;;1.10;;
18447;SDS011;9353;50.956;6.920;2022-09-03T04:20:05;1.33;;;1.23;;
18447;SDS011;9353;50.956;6.920;2022-09-03T04:22:32;1.10;;;1.10;;
18447;SDS011;9353;50.956;6.920;2022-09-03T04:24:59;2.20;;;1.20;;
18447;SDS011;9353;50.956;6.920;2022-09-03T04:27:26;1.13;;;1.13;;
18447;SDS011;9353;50.956;6.920;2022-09-03T04:29:53;2.87;;;1.10;;
18447;SDS011;9353;50.956;6.920;2022-09-03T04:32:20;1.30;;;1.20;;
18447;SDS011;9353;50.956;6.920;2022-09-03T04:35:07;0.90;;;0.90;;
18447;SDS011;9353;50.956;6.920;2022-09-03T04:37:34;1.30;;;1.30;;
18447;SDS011;9353;50.956;6.920;2022-09-03T04:40:01;1.50;;;1.40;;
18447;SDS011;9353;50.956;6.920;2022-09-03T04:42:28;1.13;;;1.03;;
18447;SDS011;9353;50.956;6.920;2022-09-03T04:44:56;1.00;;;1.00;;
18447;SDS011;9353;50.956;6.920;2022-09-03T04:47:23;1.10;;;1.10;;
18447;SDS011;9353;50.956;6.920;2022-09-03T04:49:52;1.43;;;1.20;;
18447;SDS011;9353;50.956;6.920;2022-09-03T04:52:20;1.20;;;1.20;;
18447;SDS011;9353;50.956;6.920;2022-09-03T04:54:48;2.13;;;1.20;;
18447;SDS011;9353;50.956;6.920;2022-09-03T04:57:15;0.90;;;0.90;;
18447;SDS011;9353;50.956;6.920;2022-09-03T04:59:42;1.70;;;1.27;;
18447;SDS011;9353;50.956;6.920;2022-09-03T05:02:09;1.00;;;1.00;;
18447;SDS011;9353;50.956;6.920;2022-09-03T05:04:38;1.77;;;1.33;;
18447;SDS011;9353;50.956;6.920;2022-09-03T05:07:06;2.40;;;1.30;;
18447;SDS011;9353;50.956;6.920;2022-09-03T05:09:34;1.60;;;1.50;;
18447;SDS011;9353;50.956;6.920;2022-09-03T05:12:04;1.30;;;1.30;;
18447;SDS011;9353;50.956;6.920;2022-09-03T05:14:31;1.70;;;1.50;;
18447;SDS011;9353;50.956;6.920;2022-09-03T05:16:58;1.43;;;1.10;;
18447;SDS011;9353;50.956;6.920;2022-09-03T05:19:25;1.20;;;1.20;;
18447;SDS011;9353;50.956;6.920;2022-09-03T05:21:53;1.17;;;1.17;;
18447;SDS011;9353;50.956;6.920;2022-09-03T05:24:20;1.10;;;1.10;;
18447;SDS011;9353;50.956;6.920;2022-09-03T05:26:49;5.23;;;1.37;;
18447;SDS011;9353;50.956;6.920;2022-09-03T05:29:16;1.23;;;1.23;;
18447;SDS011;9353;50.956;6.920;2022-09-03T05:31:44;1.50;;;1.03;;
18447;SDS011;9353;50.956;6.920;2022-09-03T05:34:11;1.10;;;1.10;;
18447;SDS011;9353;50.956;6.920;2022-09-03T05:36:38;1.17;;;1.17;;
18447;SDS011;9353;50.956;6.920;2022-09-03T05:39:05;1.00;;;1.00;;
18447;SDS011;9353;50.956;6.920;2022-09-03T05:41:32;1.50;;;1.20;;
18447;SDS011;9353;50.956;6.920;2022-09-03T05:44:01;1.10;;;1.10;;
18447;SDS011;9353;50.956;6.920;2022-09-03T05:46:30;1.10;;;1.10;;
18447;SDS011;9353;50.956;6.920;2022-09-03T05:48:58;1.73;;;1.30;;
18447;SDS011;9353;50.956;6.920;2022-09-03T05:51:26;2.03;;;1.00;;
18447;SDS011;9353;50.956;6.920;2022-09-03T05:53:53;1.17;;;1.07;;
18447;SDS011;9353;50.956;6.920;2022-09-03T05:56:21;1.17;;;1.17;;
18447;SDS011;9353;50.956;6.920;2022-09-03T05:58:48;1.30;;;1.30;;
18447;SDS011;9353;50.956;6.920;2022-09-03T06:01:18;1.27;;;1.20;;
18447;SDS011;9353;50.956;6.920;2022-09-03T06:03:46;1.30;;;1.20;;
18447;SDS011;9353;50.956;6.920;2022-09-03T06:06:14;1.23;;;1.13;;
18447;SDS011;9353;50.956;6.920;2022-09-03T06:08:41;1.27;;;1.17;;
18447;SDS011;9353;50.956;6.920;2022-09-03T06:11:09;1.33;;;1.03;;
18447;SDS011;9353;50.956;6.920;2022-09-03T06:13:36;1.00;;;1.00;;
18447;SDS011;9353;50.956;6.920;2022-09-03T06:16:05;1.53;;;1.43;;
18447;SDS011;9353;50.956;6.920;2022-09-03T06:18:34;1.17;;;1.13;;
18447;SDS011;9353;50.956;6.920;2022-09-03T06:21:02;1.80;;;1.33;;
18447;SDS011;9353;50.956;6.920;2022-09-03T06:23:29;1.20;;;1.10;;
18447;SDS011;9353;50.956;6.920;2022-09-03T06:26:00;1.50;;;1.30;;
18447;SDS011;9353;50.956;6.920;2022-09-03T06:28:27;1.40;;;1.30;;
18447;SDS011;9353;50.956;6.920;2022-09-03T06:30:56;1.20;;;1.20;;
18447;SDS011;9353;50.956;6.920;2022-09-03T06:33:24;1.27;;;1.27;;
18447;SDS011;9353;50.956;6.920;2022-09-03T06:35:53;1.27;;;1.13;;
18447;SDS011;9353;50.956;6.920;2022-09-03T06:38:23;1.53;;;1.20;;
18447;SDS011;9353;50.956;6.920;2022-09-03T06:40:51;2.07;;;1.40;;
18447;SDS011;9353;50.956;6.920;2022-09-03T06:43:18;1.00;;;1.00;;
18447;SDS011;9353;50.956;6.920;2022-09-03T06:45:51;1.20;;;1.07;;
18447;SDS011;9353;50.956;6.920;2022-09-03T06:48:19;1.20;;;1.20;;
18447;SDS011;9353;50.956;6.920;2022-09-03T06:50:52;1.00;;;1.00;;
18447;SDS011;9353;50.956;6.920;2022-09-03T06:53:21;1.20;;;1.20;;
18447;SDS011;9353;50.956;6.920;2022-09-03T06:55:51;0.90;;;0.90;;
18447;SDS011;9353;50.956;6.920;2022-09-03T06:58:18;3.07;;;1.57;;
18447;SDS011;9353;50.956;6.920;2022-09-03T07:00:46;1.10;;;1.10;;
18447;SDS011;9353;50.956;6.920;2022-09-03T07:03:13;1.30;;;1.30;;
18447;SDS011;9353;50.956;6.920;2022-09-03T07:05:41;1.40;;;1.30;;
18447;SDS011;9353;50.956;6.920;2022-09-03T07:08:08;1.13;;;1.13;;
18447;SDS011;9353;50.956;6.920;2022-09-03T07:10:37;1.17;;;1.17;;
18447;SDS011;9353;50.956;6.920;2022-09-03T07:13:04;1.40;;;1.30;;
18447;SDS011;9353;50.956;6.920;2022-09-03T07:15:31;1.10;;;1.10;;
18447;SDS011;9353;50.956;6.920;2022-09-03T07:17:58;1.10;;;1.10;;
18447;SDS011;9353;50.956;6.920;2022-09-03T07:20:25;1.10;;;1.10;;
18447;SDS011;9353;50.956;6.920;2022-09-03T07:22:53;1.33;;;1.27;;
18447;SDS011;9353;50.956;6.920;2022-09-03T07:25:21;1.13;;;1.13;;
18447;SDS011;9353;50.956;6.920;2022-09-03T07:27:50;1.47;;;1.37;;
18447;SDS011;9353;50.956;6.920;2022-09-03T07:30:17;1.40;;;1.40;;
18447;SDS011;9353;50.956;6.920;2022-09-03T07:32:44;1.43;;;1.33;;
18447;SDS011;9353;50.956;6.920;2022-09-03T07:35:15;1.20;;;1.20;;
18447;SDS011;9353;50.956;6.920;2022-09-03T07:37:42;1.13;;;1.13;;
18447;SDS011;9353;50.956;6.920;2022-09-03T07:40:09;3.23;;;1.33;;
18447;SDS011;9353;50.956;6.920;2022-09-03T07:42:39;1.70;;;1.60;;
18447;SDS011;9353;50.956;6.920;2022-09-03T07:45:08;1.60;;;1.50;;
18447;SDS011;9353;50.956;6.920;2022-09-03T07:47:36;2.17;;;1.50;;
18447;SDS011;9353;50.956;6.920;2022-09-03T07:50:05;1.30;;;1.20;;
18447;SDS011;9353;50.956;6.920;2022-09-03T07:52:32;2.67;;;1.53;;
18447;SDS011;9353;50.956;6.920;2022-09-03T07:54:59;1.30;;;1.30;;
18447;SDS011;9353;50.956;6.920;2022-09-03T07:57:27;1.03;;;1.03;;
18447;SDS011;9353;50.956;6.920;2022-09-03T07:59:54;1.33;;;1.10;;
18447;SDS011;9353;50.956;6.920;2022-09-03T08:02:22;1.33;;;1.20;;
18447;SDS011;9353;50.956;6.920;2022-09-03T08:04:49;1.43;;;1.20;;
18447;SDS011;9353;50.956;6.920;2022-09-03T08:07:16;1.60;;;1.00;;
18447;SDS011;9353;50.956;6.920;2022-09-03T08:09:43;1.20;;;1.10;;
18447;SDS011;9353;50.956;6.920;2022-09-03T08:12:10;4.67;;;1.40;;
18447;SDS011;9353;50.956;6.920;2022-09-03T08:14:37;1.37;;;1.27;;
18447;SDS011;9353;50.956;6.920;2022-09-03T08:17:05;1.47;;;1.30;;
18447;SDS011;9353;50.956;6.920;2022-09-03T08:19:33;1.90;;;1.33;;
18447;SDS011;9353;50.956;6.920;2022-09-03T08:22:00;1.67;;;1.20;;
18447;SDS011;9353;50.956;6.920;2022-09-03T08:24:27;1.40;;;1.30;;
18447;SDS011;9353;50.956;6.920;2022-09-03T08:26:55;2.20;;;1.53;;
18447;SDS011;9353;50.956;6.920;2022-09-03T08:29:22;2.20;;;2.10;;
18447;SDS011;9353;50.956;6.920;2022-09-03T08:31:49;1.83;;;1.73;;
18447;SDS011;9353;50.956;6.920;2022-09-03T08:34:16;1.63;;;1.53;;
18447;SDS011;9353;50.956;6.920;2022-09-03T08:36:45;2.17;;;1.50;;
18447;SDS011;9353;50.956;6.920;2022-09-03T08:39:12;1.23;;;1.23;;
18447;SDS011;9353;50.956;6.920;2022-09-03T08:41:47;1.43;;;1.43;;
18447;SDS011;9353;50.956;6.920;2022-09-03T08:44:18;1.63;;;1.50;;
18447;SDS011;9353;50.956;6.920;2022-09-03T08:46:48;1.90;;;1.80;;
18447;SDS011;9353;50.956;6.920;2022-09-03T08:49:18;1.83;;;1.73;;
18447;SDS011;9353;50.956;6.920;2022-09-03T08:51:48;2.17;;;2.00;;
18447;SDS011;9353;50.956;6.920;2022-09-03T08:54:16;1.53;;;1.50;;
18447;SDS011;9353;50.956;6.920;2022-09-03T08:56:44;2.23;;;1.70;;
18447;SDS011;9353;50.956;6.920;2022-09-03T08:59:12;4.33;;;1.67;;
18447;SDS011;9353;50.956;6.920;2022-09-03T09:01:42;1.70;;;1.60;;
18447;SDS011;9353;50.956;6.920;2022-09-03T09:04:16;1.60;;;1.50;;
18447;SDS011;9353;50.956;6.920;2022-09-03T09:06:45;1.80;;;1.80;;
18447;SDS011;9353;50.956;6.920;2022-09-03T09:09:20;2.10;;;1.30;;
18447;SDS011;9353;50.956;6.920;2022-09-03T09:11:53;2.00;;;1.50;;
18447;SDS011;9353;50.956;6.920;2022-09-03T09:14:25;1.40;;;1.40;;
18447;SDS011;9353;50.956;6.920;2022-09-03T09:16:57;1.77;;;1.67;;
18447;SDS011;9353;50.956;6.920;2022-09-03T09:19:31;2.60;;;1.70;;
18447;SDS011;9353;50.956;6.920;2022-09-03T09:22:02;1.50;;;1.40;;
18447;SDS011;9353;50.956;6.920;2022-09-03T09:24:34;1.50;;;1.40;;
18447;SDS011;9353;50.956;6.920;2022-09-03T09:27:03;1.60;;;1.60;;
18447;SDS011;9353;50.956;6.920;2022-09-03T09:29:31;1.83;;;1.70;;
18447;SDS011;9353;50.956;6.920;2022-09-03T09:31:59;1.60;;;1.60;;
18447;SDS011;9353;50.956;6.920;2022-09-03T09:34:32;1.93;;;1.83;;
18447;SDS011;9353;50.956;6.920;2022-09-03T09:37:00;1.90;;;1.80;;
18447;SDS011;9353;50.956;6.920;2022-09-03T09:39:29;1.67;;;1.47;;
18447;SDS011;9353;50.956;6.920;2022-09-03T09:41:57;2.47;;;1.50;;
18447;SDS011;9353;50.956;6.920;2022-09-03T09:44:26;1.70;;;1.60;;
18447;SDS011;9353;50.956;6.920;2022-09-03T09:47:00;1.80;;;1.70;;
18447;SDS011;9353;50.956;6.920;2022-09-03T09:49:30;1.50;;;1.40;;
18447;SDS011;9353;50.956;6.920;2022-09-03T09:51:59;1.63;;;1.53;;
18447;SDS011;9353;50.956;6.920;2022-09-03T09:54:27;1.80;;;1.70;;
18447;SDS011;9353;50.956;6.920;2022-09-03T09:56:58;1.40;;;1.30;;
18447;SDS011;9353;50.956;6.920;2022-09-03T09:59:27;3.27;;;1.53;;
18447;SDS011;9353;50.956;6.920;2022-09-03T10:02:01;1.60;;;1.60;;
18447;SDS011;9353;50.956;6.920;2022-09-03T10:04:30;2.67;;;1.63;;
18447;SDS011;9353;50.956;6.920;2022-09-03T10:06:58;1.70;;;1.60;;
18447;SDS011;9353;50.956;6.920;2022-09-03T10:09:27;1.80;;;1.70;;
18447;SDS011;9353;50.956;6.920;2022-09-03T10:11:57;1.70;;;1.60;;
18447;SDS011;9353;50.956;6.920;2022-09-03T10:14:31;1.80;;;1.70;;
18447;SDS011;9353;50.956;6.920;2022-09-03T10:17:02;2.60;;;1.87;;
18447;SDS011;9353;50.956;6.920;2022-09-03T10:19:34;2.73;;;1.97;;
18447;SDS011;9353;50.956;6.920;2022-09-03T10:22:04;2.70;;;1.90;;
18447;SDS011;9353;50.956;6.920;2022-09-03T10:24:37;1.90;;;1.80;;
18447;SDS011;9353;50.956;6.920;2022-09-03T10:27:06;2.07;;;1.70;;
18447;SDS011;9353;50.956;6.920;2022-09-03T10:29:36;2.10;;;2.00;;
18447;SDS011;9353;50.956;6.920;2022-09-03T10:32:09;2.87;;;1.90;;
18447;SDS011;9353;50.956;6.920;2022-09-03T10:34:41;1.93;;;1.70;;
18447;SDS011;9353;50.956;6.920;2022-09-03T10:37:13;1.80;;;1.70;;
18447;SDS011;9353;50.956;6.920;2022-09-03T10:39:47;1.70;;;1.70;;
18447;SDS011;9353;50.956;6.920;2022-09-03T10:42:20;1.70;;;1.70;;
18447;SDS011;9353;50.956;6.920;2022-09-03T10:44:56;2.20;;;2.10;;
18447;SDS011;9353;50.956;6.920;2022-09-03T10:47:36;2.00;;;1.80;;
18447;SDS011;9353;50.956;6.920;2022-09-03T10:50:09;1.90;;;1.80;;
18447;SDS011;9353;50.956;6.920;2022-09-03T10:52:44;2.83;;;1.87;;
18447;SDS011;9353;50.956;6.920;2022-09-03T10:55:17;2.17;;;2.00;;
18447;SDS011;9353;50.956;6.920;2022-09-03T10:57:48;2.70;;;1.70;;
18447;SDS011;9353;50.956;6.920;2022-09-03T11:00:18;2.60;;;1.90;;
18447;SDS011;9353;50.956;6.920;2022-09-03T11:02:57;5.33;;;1.90;;
18447;SDS011;9353;50.956;6.920;2022-09-03T11:05:31;3.67;;;1.60;;
18447;SDS011;9353;50.956;6.920;2022-09-03T11:08:04;2.88;;;2.03;;
18447;SDS011;9353;50.956;6.920;2022-09-03T11:10:33;2.33;;;2.03;;
18447;SDS011;9353;50.956;6.920;2022-09-03T11:13:02;2.83;;;2.03;;
18447;SDS011;9353;50.956;6.920;2022-09-03T11:15:32;2.00;;;1.90;;
18447;SDS011;9353;50.956;6.920;2022-09-03T11:18:02;2.77;;;1.93;;
18447;SDS011;9353;50.956;6.920;2022-09-03T11:20:31;2.10;;;2.00;;
18447;SDS011;9353;50.956;6.920;2022-09-03T11:22:59;2.25;;;2.15;;
18447;SDS011;9353;50.956;6.920;2022-09-03T11:25:29;1.80;;;1.75;;
18447;SDS011;9353;50.956;6.920;2022-09-03T11:28:00;2.30;;;2.10;;
18447;SDS011;9353;50.956;6.920;2022-09-03T11:30:36;2.50;;;2.40;;
18447;SDS011;9353;50.956;6.920;2022-09-03T11:33:06;1.90;;;1.80;;
18447;SDS011;9353;50.956;6.920;2022-09-03T11:35:38;2.40;;;2.30;;
18447;SDS011;9353;50.956;6.920;2022-09-03T11:38:07;2.38;;;2.28;;
18447;SDS011;9353;50.956;6.920;2022-09-03T11:40:54;4.13;;;2.35;;
18447;SDS011;9353;50.956;6.920;2022-09-03T11:43:24;2.55;;;2.40;;
18447;SDS011;9353;50.956;6.920;2022-09-03T11:46:01;2.15;;;2.05;;
18447;SDS011;9353;50.956;6.920;2022-09-03T11:48:39;2.20;;;2.10;;
18447;SDS011;9353;50.956;6.920;2022-09-03T11:51:17;2.38;;;2.00;;
18447;SDS011;9353;50.956;6.920;2022-09-03T11:53:52;2.50;;;2.30;;
18447;SDS011;9353;50.956;6.920;2022-09-03T11:56:19;1.83;;;1.73;;
18447;SDS011;9353;50.956;6.920;2022-09-03T11:58:56;2.30;;;2.20;;
18447;SDS011;9353;50.956;6.920;2022-09-03T12:01:26;2.10;;;2.00;;
18447;SDS011;9353;50.956;6.920;2022-09-03T12:03:56;3.35;;;2.10;;
18447;SDS011;9353;50.956;6.920;2022-09-03T12:06:32;1.92;;;1.83;;
18447;SDS011;9353;50.956;6.920;2022-09-03T12:09:14;2.00;;;1.90;;
18447;SDS011;9353;50.956;6.920;2022-09-03T12:11:47;2.22;;;2.13;;
18447;SDS011;9353;50.956;6.920;2022-09-03T12:14:18;2.42;;;1.90;;
18447;SDS011;9353;50.956;6.920;2022-09-03T12:16:55;1.98;;;1.80;;
18447;SDS011;9353;50.956;6.920;2022-09-03T12:19:25;2.10;;;2.00;;
18447;SDS011;9353;50.956;6.920;2022-09-03T12:21:53;1.95;;;1.77;;
18447;SDS011;9353;50.956;6.920;2022-09-03T12:24:21;2.10;;;2.00;;
18447;SDS011;9353;50.956;6.920;2022-09-03T12:26:49;3.42;;;2.15;;
18447;SDS011;9353;50.956;6.920;2022-09-03T12:29:19;1.80;;;1.70;;
18447;SDS011;9353;50.956;6.920;2022-09-03T12:31:47;2.28;;;2.10;;
18447;SDS011;9353;50.956;6.920;2022-09-03T12:34:17;2.10;;;1.98;;
18447;SDS011;9353;50.956;6.920;2022-09-03T12:36:45;2.30;;;2.10;;
18447;SDS011;9353;50.956;6.920;2022-09-03T12:39:14;2.00;;;1.90;;
18447;SDS011;9353;50.956;6.920;2022-09-03T12:41:51;1.73;;;1.63;;
18447;SDS011;9353;50.956;6.920;2022-09-03T12:44:23;2.13;;;2.03;;
18447;SDS011;9353;50.956;6.920;2022-09-03T12:47:01;2.22;;;2.13;;
18447;SDS011;9353;50.956;6.920;2022-09-03T12:49:34;1.73;;;1.65;;
18447;SDS011;9353;50.956;6.920;2022-09-03T12:52:02;3.15;;;1.95;;
18447;SDS011;9353;50.956;6.920;2022-09-03T12:54:30;2.08;;;1.90;;
18447;SDS011;9353;50.956;6.920;2022-09-03T12:56:57;2.10;;;2.00;;
18447;SDS011;9353;50.956;6.920;2022-09-03T12:59:26;2.42;;;1.95;;
18447;SDS011;9353;50.956;6.920;2022-09-03T13:01:55;2.00;;;1.90;;
18447;SDS011;9353;50.956;6.920;2022-09-03T13:04:24;1.92;;;1.70;;
18447;SDS011;9353;50.956;6.920;2022-09-03T13:06:54;1.90;;;1.80;;
18447;SDS011;9353;50.956;6.920;2022-09-03T13:09:24;2.00;;;1.88;;
18447;SDS011;9353;50.956;6.920;2022-09-03T13:11:54;2.30;;;2.10;;
18447;SDS011;9353;50.956;6.920;2022-09-03T13:14:23;1.73;;;1.73;;
18447;SDS011;9353;50.956;6.920;2022-09-03T13:19:48;1.85;;;1.85;;
18447;SDS011;9353;50.956;6.920;2022-09-03T13:22:20;1.92;;;1.83;;
18447;SDS011;9353;50.956;6.920;2022-09-03T13:24:56;1.80;;;1.80;;
18447;SDS011;9353;50.956;6.920;2022-09-03T13:27:25;2.05;;;1.95;;
18447;SDS011;9353;50.956;6.920;2022-09-03T13:29:59;1.92;;;1.83;;
18447;SDS011;9353;50.956;6.920;2022-09-03T13:32:31;2.00;;;1.90;;
18447;SDS011;9353;50.956;6.920;2022-09-03T13:35:03;2.00;;;1.90;;
18447;SDS011;9353;50.956;6.920;2022-09-03T13:37:34;2.03;;;1.92;;
18447;SDS011;9353;50.956;6.920;2022-09-03T13:40:08;1.95;;;1.90;;
18447;SDS011;9353;50.956;6.920;2022-09-03T13:42:40;2.20;;;2.10;;
18447;SDS011;9353;50.956;6.920;2022-09-03T13:45:11;1.73;;;1.73;;
18447;SDS011;9353;50.956;6.920;2022-09-03T13:47:43;1.95;;;1.85;;
18447;SDS011;9353;50.956;6.920;2022-09-03T13:50:26;1.80;;;1.80;;
18447;SDS011;9353;50.956;6.920;2022-09-03T13:52:55;1.60;;;1.60;;
18447;SDS011;9353;50.956;6.920;2022-09-03T13:55:26;1.90;;;1.80;;
18447;SDS011;9353;50.956;6.920;2022-09-03T13:57:55;2.10;;;2.00;;
18447;SDS011;9353;50.956;6.920;2022-09-03T14:00:25;2.33;;;2.10;;
18447;SDS011;9353;50.956;6.920;2022-09-03T14:02:56;2.10;;;2.00;;
18447;SDS011;9353;50.956;6.920;2022-09-03T14:05:30;1.90;;;1.90;;
18447;SDS011;9353;50.956;6.920;2022-09-03T14:08:04;2.65;;;1.92;;
18447;SDS011;9353;50.956;6.920;2022-09-03T14:10:38;1.88;;;1.77;;
18447;SDS011;9353;50.956;6.920;2022-09-03T14:13:13;2.08;;;1.98;;
18447;SDS011;9353;50.956;6.920;2022-09-03T14:15:45;2.67;;;2.30;;
18447;SDS011;9353;50.956;6.920;2022-09-03T14:18:15;2.42;;;2.33;;
18447;SDS011;9353;50.956;6.920;2022-09-03T14:20:52;2.40;;;2.20;;
18447;SDS011;9353;50.956;6.920;2022-09-03T14:23:25;2.10;;;2.00;;
18447;SDS011;9353;50.956;6.920;2022-09-03T14:25:55;2.10;;;2.00;;
18447;SDS011;9353;50.956;6.920;2022-09-03T14:28:27;2.35;;;2.25;;
18447;SDS011;9353;50.956;6.920;2022-09-03T14:30:56;3.95;;;2.47;;
18447;SDS011;9353;50.956;6.920;2022-09-03T14:33:29;2.17;;;2.00;;
18447;SDS011;9353;50.956;6.920;2022-09-03T14:36:02;1.92;;;1.83;;
18447;SDS011;9353;50.956;6.920;2022-09-03T14:38:43;2.58;;;2.38;;
18447;SDS011;9353;50.956;6.920;2022-09-03T14:44:02;2.58;;;1.90;;
18447;SDS011;9353;50.956;6.920;2022-09-03T14:46:36;2.42;;;2.22;;
18447;SDS011;9353;50.956;6.920;2022-09-03T14:49:19;2.88;;;2.13;;
18447;SDS011;9353;50.956;6.920;2022-09-03T14:51:56;2.50;;;2.40;;
18447;SDS011;9353;50.956;6.920;2022-09-03T14:54:38;2.17;;;2.08;;
18447;SDS011;9353;50.956;6.920;2022-09-03T14:57:11;2.30;;;2.20;;
18447;SDS011;9353;50.956;6.920;2022-09-03T14:59:44;1.90;;;1.85;;
18447;SDS011;9353;50.956;6.920;2022-09-03T15:02:25;3.15;;;1.98;;
18447;SDS011;9353;50.956;6.920;2022-09-03T15:04:58;2.50;;;2.40;;
18447;SDS011;9353;50.956;6.920;2022-09-03T15:07:31;2.85;;;2.35;;
18447;SDS011;9353;50.956;6.920;2022-09-03T15:10:02;2.10;;;1.90;;
18447;SDS011;9353;50.956;6.920;2022-09-03T15:12:32;2.35;;;2.15;;
18447;SDS011;9353;50.956;6.920;2022-09-03T15:15:04;2.55;;;2.35;;
18447;SDS011;9353;50.956;6.920;2022-09-03T15:17:39;2.65;;;2.47;;
18447;SDS011;9353;50.956;6.920;2022-09-03T15:20:14;3.67;;;2.42;;
18447;SDS011;9353;50.956;6.920;2022-09-03T15:23:01;2.78;;;2.63;;
18447;SDS011;9353;50.956;6.920;2022-09-03T15:25:36;2.47;;;2.38;;
18447;SDS011;9353;50.956;6.920;2022-09-03T15:28:10;3.17;;;3.00;;
18447;SDS011;9353;50.956;6.920;2022-09-03T15:30:40;2.40;;;2.30;;
18447;SDS011;9353;50.956;6.920;2022-09-03T15:33:14;2.40;;;2.30;;